createdAt,value
2022-09-04T00:02:22.065Z,45.76
2022-09-04T00:05:02.692Z,46.33
2022-09-04T00:07:53.598Z,46.14
2022-09-04T00:10:29.855Z,46.05
2022-09-04T00:13:21.558Z,46.73
2022-09-04T00:16:07.588Z,45.89
2022-09-04T00:18:42.808Z,45.97
2022-09-04T00:21:35.610Z,46.48
2022-09-04T00:24:04.554Z,46.35
2022-09-04T00:26:50.741Z,46.31
2022-09-04T00:29:20.992Z,46.43
2022-09-04T00:31:56.314Z,46.19
2022-09-04T00:34:53.034Z,46.28
2022-09-04T00:37:24.230Z,46.73
2022-09-04T00:40:00.713Z,47.02
2022-09-04T00:43:06.785Z,47.15
2022-09-04T00:45:51.218Z,47.41
2022-09-04T00:48:46.322Z,47.53
2022-09-04T00:51:47.763Z,47.33
2022-09-04T00:54:23.920Z,48.11
2022-09-04T00:57:19.219Z,48.59
2022-09-04T01:00:09.009Z,48.69
2022-09-04T01:03:01.126Z,48.20
2022-09-04T01:05:45.660Z,48.23
2022-09-04T01:08:27.466Z,48.18
2022-09-04T01:11:33.083Z,48.81
2022-09-04T01:14:44.988Z,49.04
2022-09-04T01:17:32.317Z,48.96
2022-09-04T01:20:14.937Z,48.20
2022-09-04T01:23:07.223Z,48.72
2022-09-04T01:26:12.008Z,48.97
2022-09-04T01:29:13.535Z,49.31
2022-09-04T01:31:47.307Z,48.89
2022-09-04T01:34:42.029Z,49.96
2022-09-04T01:38:11.166Z,49.45
2022-09-04T01:41:00.308Z,49.63
2022-09-04T01:43:27.611Z,50.10
2022-09-04T01:46:22.303Z,49.89
2022-09-04T01:49:19.383Z,49.22
2022-09-04T01:52:08.144Z,48.98
2022-09-04T01:54:56.985Z,48.73
2022-09-04T01:57:47.311Z,48.33
2022-09-04T02:00:17.437Z,49.25
2022-09-04T02:03:10.934Z,49.19
2022-09-04T02:05:45.755Z,48.88
2022-09-04T02:08:31.218Z,49.81
2022-09-04T02:11:15.864Z,49.73
2022-09-04T02:14:09.287Z,49.78
2022-09-04T02:17:18.328Z,48.90
2022-09-04T02:19:59.780Z,48.80
2022-09-04T02:22:44.945Z,49.04
2022-09-04T02:25:31.759Z,49.42
2022-09-04T02:28:08.257Z,49.71
2022-09-04T02:30:54.558Z,49.76
2022-09-04T02:33:59.472Z,49.58
2022-09-04T02:37:01.258Z,49.80
2022-09-04T02:39:56.254Z,49.34
2022-09-04T02:42:27.826Z,49.24
2022-09-04T02:45:12.828Z,49.09
2022-09-04T02:47:56.240Z,50.29
2022-09-04T02:51:01.128Z,49.93
2022-09-04T02:53:52.678Z,49.40
2022-09-04T02:56:47.883Z,49.33
2022-09-04T02:59:36.935Z,49.17
2022-09-04T03:02:06.246Z,49.52
2022-09-04T03:04:50.060Z,49.57
2022-09-04T03:07:39.744Z,49.88
2022-09-04T03:10:11.958Z,49.37
2022-09-04T03:13:03.928Z,49.77
2022-09-04T03:15:46.461Z,49.43
2022-09-04T03:18:51.464Z,49.73
2022-09-04T03:21:27.994Z,49.30
2022-09-04T03:24:00.134Z,49.80
2022-09-04T03:26:31.855Z,50.08
2022-09-04T03:29:10.144Z,49.87
2022-09-04T03:31:56.153Z,49.74
2022-09-04T03:34:36.719Z,49.70
2022-09-04T03:37:28.784Z,49.49
2022-09-04T03:39:58.746Z,49.52
2022-09-04T03:42:40.572Z,49.33
2022-09-04T03:45:10.826Z,50.00
2022-09-04T03:47:47.795Z,51.06
2022-09-04T03:50:20.983Z,49.97
2022-09-04T03:52:50.688Z,50.01
2022-09-04T03:55:25.304Z,49.92
2022-09-04T03:58:10.954Z,50.58
2022-09-04T04:00:57.333Z,50.74
2022-09-04T04:03:31.986Z,51.27
2022-09-04T04:06:23.291Z,51.42
2022-09-04T04:09:04.415Z,50.97
2022-09-04T04:11:45.161Z,51.21
2022-09-04T04:14:30.935Z,51.08
2022-09-04T04:17:06.094Z,50.91
2022-09-04T04:20:14.851Z,50.93
2022-09-04T04:23:37.549Z,51.54
2022-09-04T04:26:31.586Z,51.13
2022-09-04T04:29:38.799Z,51.75
2022-09-04T04:32:15.057Z,51.80
2022-09-04T04:34:58.466Z,51.36
2022-09-04T04:37:37.055Z,51.90
2022-09-04T04:40:15.675Z,51.20
2022-09-04T04:42:55.052Z,52.12
2022-09-04T04:45:50.561Z,52.17
2022-09-04T04:48:40.483Z,51.12
2022-09-04T04:51:40.686Z,51.09
2022-09-04T04:54:30.144Z,51.61
2022-09-04T04:57:28.042Z,51.51
2022-09-04T05:00:22.866Z,51.19
2022-09-04T05:03:32.318Z,51.77
2022-09-04T05:06:14.771Z,52.06
2022-09-04T05:09:10.059Z,52.39
2022-09-04T05:11:55.060Z,52.92
2022-09-04T05:15:00.749Z,52.46
2022-09-04T05:17:40.660Z,52.47
2022-09-04T05:20:32.436Z,52.90
2022-09-04T05:23:12.906Z,52.35
2022-09-04T05:25:52.609Z,51.79
2022-09-04T05:28:46.957Z,51.89
2022-09-04T05:31:20.185Z,52.77
2022-09-04T05:34:02.109Z,52.34
2022-09-04T05:36:45.935Z,52.70
2022-09-04T05:39:32.922Z,52.43
2022-09-04T05:42:37.875Z,51.88
2022-09-04T05:45:24.209Z,52.53
2022-09-04T05:48:19.340Z,52.86
2022-09-04T05:50:46.596Z,52.79
2022-09-04T05:53:51.339Z,52.39
2022-09-04T05:56:21.355Z,52.19
2022-09-04T05:59:06.058Z,52.70
2022-09-04T06:01:52.476Z,52.08
2022-09-04T06:04:44.247Z,52.37
2022-09-04T06:07:14.698Z,51.62
2022-09-04T06:09:48.324Z,52.12
2022-09-04T06:12:36.353Z,51.96
2022-09-04T06:15:25.462Z,51.45
2022-09-04T06:18:12.952Z,51.92
2022-09-04T06:20:51.333Z,52.61
2022-09-04T06:23:37.319Z,52.13
2022-09-04T06:26:23.086Z,52.35
2022-09-04T06:29:05.806Z,51.38
2022-09-04T06:31:36.642Z,50.85
2022-09-04T06:34:10.985Z,51.13
2022-09-04T06:36:56.338Z,51.60
2022-09-04T06:39:45.203Z,51.32
2022-09-04T06:42:26.479Z,51.19
2022-09-04T06:45:26.947Z,51.72
2022-09-04T06:48:23.019Z,51.26
2022-09-04T06:50:56.999Z,51.29
2022-09-04T06:53:39.301Z,50.95
2022-09-04T06:56:35.781Z,51.13
2022-09-04T06:59:27.815Z,51.46
2022-09-04T07:02:08.139Z,51.50
2022-09-04T07:04:51.194Z,52.09
2022-09-04T07:07:27.048Z,52.12
2022-09-04T07:10:10.218Z,51.59
2022-09-04T07:13:08.760Z,52.15
2022-09-04T07:16:11.999Z,51.80
2022-09-04T07:18:52.214Z,52.28
2022-09-04T07:21:35.631Z,51.90
2022-09-04T07:24:09.106Z,51.51
2022-09-04T07:27:15.709Z,51.26
2022-09-04T07:29:48.679Z,51.35
2022-09-04T07:32:22.630Z,51.91
2022-09-04T07:35:00.892Z,51.64
2022-09-04T07:37:39.957Z,51.34
2022-09-04T07:40:14.980Z,51.14
2022-09-04T07:42:51.123Z,52.75
2022-09-04T07:45:38.416Z,52.84
2022-09-04T07:48:35.774Z,52.65
2022-09-04T07:51:25.944Z,53.06
2022-09-04T07:54:22.627Z,53.63
2022-09-04T07:56:59.066Z,52.24
2022-09-04T07:59:51.116Z,52.46
2022-09-04T08:02:56.550Z,52.87
2022-09-04T08:05:31.443Z,52.56
2022-09-04T08:08:08.324Z,52.93
2022-09-04T08:11:13.461Z,52.92
2022-09-04T08:14:02.711Z,52.73
2022-09-04T08:16:53.417Z,52.64
2022-09-04T08:19:41.726Z,52.51
2022-09-04T08:22:13.404Z,52.85
2022-09-04T08:24:53.801Z,52.41
2022-09-04T08:27:44.473Z,52.34
2022-09-04T08:30:14.269Z,52.34
2022-09-04T08:32:53.176Z,52.37
2022-09-04T08:35:55.040Z,51.94
2022-09-04T08:38:40.520Z,52.25
2022-09-04T08:41:13.334Z,51.67
2022-09-04T08:44:09.481Z,52.29
2022-09-04T08:47:17.779Z,52.29
2022-09-04T08:50:12.859Z,51.72
2022-09-04T08:52:45.981Z,51.63
2022-09-04T08:55:50.615Z,51.52
2022-09-04T08:58:38.693Z,51.51
2022-09-04T09:01:30.501Z,51.27
2022-09-04T09:04:14.971Z,51.08
2022-09-04T09:07:06.888Z,51.42
2022-09-04T09:09:47.810Z,51.07
2022-09-04T09:12:40.890Z,50.95
2022-09-04T09:15:13.995Z,50.71
2022-09-04T09:18:03.509Z,50.63
2022-09-04T09:20:54.340Z,50.62
2022-09-04T09:23:37.994Z,50.17
2022-09-04T09:26:26.630Z,49.86
2022-09-04T09:28:56.607Z,49.73
2022-09-04T09:31:46.099Z,49.41
2022-09-04T09:34:53.845Z,48.93
2022-09-04T09:37:34.156Z,49.06
2022-09-04T09:40:13.654Z,49.16
2022-09-04T09:42:59.958Z,48.99
2022-09-04T09:45:54.505Z,49.44
2022-09-04T09:48:54.967Z,49.04
2022-09-04T09:52:00.808Z,48.88
2022-09-04T09:54:52.508Z,48.05
2022-09-04T09:57:41.171Z,48.18
2022-09-04T10:00:15.253Z,48.15
2022-09-04T10:03:20.248Z,48.07
2022-09-04T10:06:13.092Z,47.45
2022-09-04T10:09:09.231Z,47.40
2022-09-04T10:11:59.346Z,48.00
2022-09-04T10:14:50.849Z,47.75
2022-09-04T10:17:48.803Z,47.47
2022-09-04T10:20:40.317Z,47.14
2022-09-04T10:23:28.779Z,47.34
2022-09-04T10:26:14.146Z,46.85
2022-09-04T10:29:09.938Z,46.55
2022-09-04T10:31:37.048Z,46.35
2022-09-04T10:34:38.309Z,46.26
2022-09-04T10:37:14.374Z,46.30
2022-09-04T10:40:27.805Z,45.89
2022-09-04T10:43:22.643Z,45.82
2022-09-04T10:46:01.115Z,45.58
2022-09-04T10:49:03.855Z,45.00
2022-09-04T10:51:56.423Z,44.99
2022-09-04T10:54:57.135Z,44.43
2022-09-04T10:57:43.302Z,44.26
2022-09-04T11:00:19.059Z,44.26
2022-09-04T11:03:04.593Z,43.64
2022-09-04T11:05:32.217Z,43.67
2022-09-04T11:08:25.929Z,43.22
2022-09-04T11:11:03.414Z,43.79
2022-09-04T11:14:08.262Z,42.80
2022-09-04T11:16:57.364Z,42.81
2022-09-04T11:20:04.242Z,42.03
2022-09-04T11:22:55.798Z,41.62
2022-09-04T11:25:38.956Z,41.50
2022-09-04T11:28:44.277Z,41.38
2022-09-04T11:31:29.418Z,41.22
2022-09-04T11:34:13.870Z,40.54
2022-09-04T11:37:15.489Z,40.24
2022-09-04T11:39:48.165Z,39.90
2022-09-04T11:42:35.606Z,40.13
2022-09-04T11:45:41.406Z,39.48
2022-09-04T11:48:37.702Z,38.78
2022-09-04T11:51:34.348Z,38.90
2022-09-04T11:54:30.714Z,38.96
2022-09-04T11:57:23.107Z,38.65
2022-09-04T12:00:17.368Z,37.79
2022-09-04T12:03:11.729Z,37.48
2022-09-04T12:05:54.824Z,37.50
2022-09-04T12:08:46.984Z,37.49
2022-09-04T12:11:41.782Z,36.90
2022-09-04T12:14:40.600Z,37.43
2022-09-04T12:17:26.123Z,37.33
2022-09-04T12:20:05.085Z,36.83
2022-09-04T12:23:02.654Z,36.19
2022-09-04T12:25:35.400Z,35.58
2022-09-04T12:28:26.697Z,35.50
2022-09-04T12:31:08.614Z,35.04
2022-09-04T12:34:08.673Z,34.75
2022-09-04T12:37:01.340Z,35.12
2022-09-04T12:39:57.350Z,34.20
2022-09-04T12:42:46.039Z,33.60
2022-09-04T12:45:24.956Z,33.51
2022-09-04T12:48:20.197Z,32.57
2022-09-04T12:51:16.581Z,33.26
2022-09-04T12:53:54.323Z,32.78
2022-09-04T12:56:26.206Z,31.98
2022-09-04T12:59:25.757Z,32.35
2022-09-04T13:02:21.343Z,32.43
2022-09-04T13:05:02.436Z,31.01
2022-09-04T13:07:50.288Z,30.30
2022-09-04T13:10:43.921Z,30.88
2022-09-04T13:13:23.588Z,30.49
2022-09-04T13:16:29.517Z,31.08
2022-09-04T13:19:13.763Z,29.73
2022-09-04T13:21:44.254Z,28.79
2022-09-04T13:24:35.735Z,27.48
2022-09-04T13:27:26.370Z,28.04
2022-09-04T13:30:03.712Z,28.57
2022-09-04T13:32:30.964Z,26.89
2022-09-04T13:35:03.874Z,26.90
2022-09-04T13:38:01.093Z,25.87
2022-09-04T13:40:55.861Z,27.26
2022-09-04T13:43:41.165Z,26.37
2022-09-04T13:46:12.776Z,26.95
2022-09-04T13:48:44.300Z,26.52
2022-09-04T13:51:17.541Z,25.82
2022-09-04T13:54:12.304Z,26.39
2022-09-04T13:56:58.563Z,25.92
2022-09-04T13:59:25.796Z,26.40
2022-09-04T14:01:55.939Z,25.79
2022-09-04T14:04:26.465Z,24.52
2022-09-04T14:07:06.943Z,24.85
2022-09-04T14:09:54.456Z,24.54
2022-09-04T14:12:39.831Z,25.18
2022-09-04T14:15:38.016Z,25.48
2022-09-04T14:18:45.345Z,24.95
2022-09-04T14:21:32.757Z,24.69
2022-09-04T14:24:18.310Z,24.65
2022-09-04T14:27:33.283Z,25.76
2022-09-04T14:30:11.239Z,25.94
2022-09-04T14:32:41.916Z,26.01
2022-09-04T14:35:34.265Z,25.47
2022-09-04T14:38:29.246Z,24.91
2022-09-04T14:41:18.616Z,24.90
2022-09-04T14:43:45.717Z,26.02
2022-09-04T14:46:32.695Z,25.23
2022-09-04T14:49:09.129Z,25.00
2022-09-04T14:51:43.542Z,24.53
2022-09-04T14:54:15.746Z,24.56
2022-09-04T14:56:51.063Z,23.81
2022-09-04T14:59:24.956Z,23.45
2022-09-04T15:02:46.038Z,23.19
2022-09-04T15:05:13.287Z,24.19
2022-09-04T15:07:43.627Z,22.89
2022-09-04T15:10:29.932Z,23.09
2022-09-04T15:13:29.095Z,22.78
2022-09-04T15:16:29.599Z,21.76
2022-09-04T15:19:28.447Z,22.98
2022-09-04T15:22:15.697Z,22.68
2022-09-04T15:24:58.366Z,22.72
2022-09-04T15:27:46.228Z,22.09
2022-09-04T15:30:24.561Z,22.71
2022-09-04T15:33:12.428Z,23.51
2022-09-04T15:35:40.652Z,22.81
2022-09-04T15:38:21.067Z,23.46
2022-09-04T15:41:15.143Z,23.49
2022-09-04T15:43:49.811Z,23.49
2022-09-04T15:46:25.626Z,23.50
2022-09-04T15:49:26.367Z,23.48
2022-09-04T15:51:58.141Z,23.97
2022-09-04T15:54:32.961Z,23.55
2022-09-04T15:57:17.750Z,23.85
2022-09-04T15:59:44.785Z,24.43
2022-09-04T16:02:36.353Z,23.80
2022-09-04T16:05:41.553Z,23.76
2022-09-04T16:08:25.872Z,25.29
2022-09-04T16:11:16.592Z,25.01
2022-09-04T16:14:03.875Z,24.36
2022-09-04T16:16:42.192Z,24.87
2022-09-04T16:19:24.382Z,26.36
2022-09-04T16:22:08.025Z,26.93
2022-09-04T16:24:35.928Z,27.06
2022-09-04T16:27:07.152Z,26.96
2022-09-04T16:29:51.081Z,27.39
2022-09-04T16:32:21.353Z,27.68
2022-09-04T16:35:09.363Z,27.74
2022-09-04T16:37:42.440Z,28.45
2022-09-04T16:40:14.515Z,28.27
2022-09-04T16:42:49.996Z,28.20
2022-09-04T16:45:22.607Z,29.07
2022-09-04T16:47:59.087Z,29.20
2022-09-04T16:50:57.705Z,28.79
2022-09-04T16:53:39.816Z,29.70
2022-09-04T16:56:45.558Z,29.58
2022-09-04T16:59:20.196Z,29.64
2022-09-04T17:02:01.445Z,30.23
2022-09-04T17:04:40.301Z,30.29
2022-09-04T17:07:08.740Z,30.35
2022-09-04T17:09:55.730Z,31.20
2022-09-04T17:12:47.490Z,31.01
2022-09-04T17:15:33.972Z,31.43
2022-09-04T17:18:06.465Z,30.89
2022-09-04T17:21:39.739Z,31.14
2022-09-04T17:29:04.938Z,32.05
2022-09-04T17:29:08.420Z,32.04
2022-09-04T17:29:48.810Z,32.27
2022-09-04T17:33:46.116Z,32.57
2022-09-04T17:40:38.844Z,32.80
2022-09-04T17:40:53.296Z,32.92
2022-09-04T17:41:56.976Z,33.08
2022-09-04T17:44:46.740Z,32.98
2022-09-04T17:47:26.406Z,33.00
2022-09-04T17:49:54.107Z,32.94
2022-09-04T17:52:28.217Z,33.59
2022-09-04T17:55:13.657Z,33.85
2022-09-04T17:57:46.989Z,34.15
2022-09-04T18:00:26.008Z,34.44
2022-09-04T18:02:56.354Z,34.24
2022-09-04T18:05:28.151Z,34.33
2022-09-04T18:08:33.003Z,34.46
2022-09-04T18:11:18.462Z,34.73
2022-09-04T18:13:54.297Z,34.58
2022-09-04T18:16:26.038Z,34.83
2022-09-04T18:18:55.902Z,35.11
2022-09-04T18:21:29.766Z,35.54
2022-09-04T18:24:00.833Z,36.12
2022-09-04T18:26:40.137Z,36.13
2022-09-04T18:30:10.055Z,35.88
2022-09-04T18:37:11.131Z,36.23
2022-09-04T18:37:24.932Z,36.51
2022-09-04T18:38:19.701Z,36.87
2022-09-04T18:41:43.359Z,37.03
2022-09-04T18:50:21.734Z,37.13
2022-09-04T18:50:32.334Z,37.18
2022-09-04T18:50:45.517Z,37.28
2022-09-04T18:52:19.835Z,38.42
2022-09-04T18:54:54.084Z,38.55
2022-09-04T18:57:27.260Z,38.21
2022-09-04T19:00:08.453Z,38.59
2022-09-04T19:02:54.147Z,38.80
2022-09-04T19:05:22.328Z,38.38
2022-09-04T19:07:59.844Z,38.68
2022-09-04T19:10:30.297Z,39.46
2022-09-04T19:13:08.302Z,39.15
2022-09-04T19:15:49.383Z,39.23
2022-09-04T19:18:26.510Z,39.36
2022-09-04T19:21:14.486Z,39.54
2022-09-04T19:23:45.114Z,40.33
2022-09-04T19:26:27.254Z,40.07
2022-09-04T19:29:00.628Z,40.11
2022-09-04T19:31:35.283Z,39.32
2022-09-04T19:34:38.306Z,39.43
2022-09-04T19:39:09.992Z,39.72
2022-09-04T19:44:22.903Z,40.37
2022-09-04T19:46:13.994Z,39.95
2022-09-04T19:46:29.350Z,40.26
2022-09-04T19:53:21.541Z,40.28
2022-09-04T19:53:22.120Z,41.24
2022-09-04T19:55:47.303Z,41.05
2022-09-04T19:58:18.715Z,40.81
2022-09-04T20:00:58.141Z,41.35
2022-09-04T20:03:33.431Z,42.76
2022-09-04T20:06:21.532Z,41.79
2022-09-04T20:08:54.512Z,41.93
2022-09-04T20:11:45.884Z,41.56
2022-09-04T20:14:29.124Z,42.76
2022-09-04T20:17:01.182Z,42.79
2022-09-04T20:19:38.861Z,43.00
2022-09-04T20:22:27.342Z,42.66
2022-09-04T20:25:06.734Z,42.48
2022-09-04T20:27:47.969Z,42.85
2022-09-04T20:30:24.713Z,42.59
2022-09-04T20:33:01.771Z,44.08
2022-09-04T20:35:35.481Z,44.23
2022-09-04T20:38:46.061Z,43.19
2022-09-04T20:41:32.341Z,42.41
2022-09-04T20:44:25.472Z,42.64
2022-09-04T20:52:42.420Z,43.60
2022-09-04T20:52:55.658Z,43.50
2022-09-04T20:53:23.148Z,43.48
2022-09-04T20:55:59.176Z,43.86
2022-09-04T21:03:09.328Z,44.43
2022-09-04T21:03:09.890Z,43.75
2022-09-04T21:04:42.082Z,43.27
2022-09-04T21:07:35.309Z,43.43
2022-09-04T21:10:11.513Z,43.11
2022-09-04T21:13:13.815Z,43.40
2022-09-04T21:15:51.703Z,43.24
2022-09-04T21:19:28.288Z,43.02
2022-09-04T21:21:59.698Z,43.67
2022-09-04T21:24:51.797Z,44.09
2022-09-04T21:27:23.818Z,43.36
2022-09-04T21:30:03.194Z,43.13
2022-09-04T21:32:45.276Z,43.09
2022-09-04T21:35:22.720Z,44.91
2022-09-04T21:37:49.842Z,44.28
2022-09-04T21:40:50.921Z,45.29
2022-09-04T21:43:35.788Z,45.66
2022-09-04T21:46:51.746Z,44.30
2022-09-04T21:49:26.799Z,44.28
2022-09-04T21:52:00.362Z,44.51
2022-09-04T22:00:16.073Z,45.86
2022-09-04T22:02:30.862Z,45.38
2022-09-04T22:02:35.904Z,44.99
2022-09-04T22:04:42.767Z,44.40
2022-09-04T22:12:10.408Z,44.89
2022-09-04T22:13:40.856Z,44.61
2022-09-04T22:13:58.411Z,44.48
2022-09-04T22:16:57.310Z,44.70
2022-09-04T22:19:43.050Z,44.20
2022-09-04T22:22:10.023Z,44.88
2022-09-04T22:25:00.502Z,45.84
2022-09-04T22:28:19.086Z,44.81
2022-09-04T22:30:55.255Z,45.95
2022-09-04T22:34:14.106Z,45.28
2022-09-04T22:37:00.715Z,45.98
2022-09-04T22:39:57.779Z,45.12
2022-09-04T22:42:37.189Z,44.82
2022-09-04T22:45:28.672Z,46.46
2022-09-04T22:48:23.416Z,47.27
2022-09-04T22:50:50.962Z,47.47
2022-09-04T22:53:35.275Z,46.13
2022-09-04T22:56:24.736Z,45.66
2022-09-04T22:59:27.684Z,48.42
2022-09-04T23:02:16.287Z,46.29
2022-09-04T23:04:47.071Z,45.73
2022-09-04T23:12:06.458Z,45.45
2022-09-04T23:13:55.007Z,45.94
2022-09-04T23:13:56.231Z,48.24
2022-09-04T23:15:59.894Z,46.53
2022-09-04T23:21:36.045Z,46.85
2022-09-04T23:26:44.644Z,47.57
2022-09-04T23:26:46.252Z,49.04
2022-09-04T23:27:54.785Z,47.56
2022-09-04T23:30:25.131Z,48.63
2022-09-04T23:33:27.876Z,49.69
2022-09-04T23:36:04.841Z,48.56
2022-09-04T23:38:39.761Z,47.91
2022-09-04T23:41:23.553Z,48.48
2022-09-04T23:44:25.638Z,48.17
2022-09-04T23:47:46.918Z,47.91
2022-09-04T23:50:23.785Z,48.31
2022-09-04T23:53:25.606Z,48.33
2022-09-04T23:55:57.737Z,47.84
2022-09-04T23:59:33.009Z,48.21
